sensor_id;sensor_type;location;lat;lon;timestamp;P1;durP1;ratioP1;P2;durP2;ratioP2
51852;SDS011;37894;53.172;6.598;2023-04-03T00:00:42;4.13;;;1.25;;
51852;SDS011;37894;53.172;6.598;2023-04-03T00:03:08;4.65;;;1.05;;
51852;SDS011;37894;53.172;6.598;2023-04-03T00:05:34;2.58;;;1.27;;
51852;SDS011;37894;53.172;6.598;2023-04-03T00:08:00;4.20;;;1.10;;
51852;SDS011;37894;53.172;6.598;2023-04-03T00:10:27;3.40;;;1.30;;
51852;SDS011;37894;53.172;6.598;2023-04-03T00:12:53;3.35;;;1.20;;
51852;SDS011;37894;53.172;6.598;2023-04-03T00:15:19;3.20;;;1.10;;
51852;SDS011;37894;53.172;6.598;2023-04-03T00:17:45;3.03;;;1.30;;
51852;SDS011;37894;53.172;6.598;2023-04-03T00:20:10;3.17;;;1.27;;
51852;SDS011;37894;53.172;6.598;2023-04-03T00:22:36;2.80;;;1.10;;
51852;SDS011;37894;53.172;6.598;2023-04-03T00:25:02;4.15;;;1.25;;
51852;SDS011;37894;53.172;6.598;2023-04-03T00:27:28;5.35;;;1.65;;
51852;SDS011;37894;53.172;6.598;2023-04-03T00:29:54;4.15;;;1.42;;
51852;SDS011;37894;53.172;6.598;2023-04-03T00:32:20;4.75;;;1.20;;
51852;SDS011;37894;53.172;6.598;2023-04-03T00:34:46;4.00;;;1.20;;
51852;SDS011;37894;53.172;6.598;2023-04-03T00:37:12;3.55;;;1.00;;
51852;SDS011;37894;53.172;6.598;2023-04-03T00:39:38;5.00;;;1.10;;
51852;SDS011;37894;53.172;6.598;2023-04-03T00:42:04;2.92;;;1.48;;
51852;SDS011;37894;53.172;6.598;2023-04-03T00:46:59;2.40;;;1.30;;
51852;SDS011;37894;53.172;6.598;2023-04-03T00:49:26;3.22;;;1.30;;
51852;SDS011;37894;53.172;6.598;2023-04-03T00:51:53;2.13;;;1.08;;
51852;SDS011;37894;53.172;6.598;2023-04-03T00:54:20;2.95;;;1.20;;
51852;SDS011;37894;53.172;6.598;2023-04-03T00:56:46;2.53;;;1.10;;
51852;SDS011;37894;53.172;6.598;2023-04-03T00:59:14;5.13;;;1.33;;
51852;SDS011;37894;53.172;6.598;2023-04-03T01:01:48;4.50;;;1.48;;
51852;SDS011;37894;53.172;6.598;2023-04-03T01:04:27;3.10;;;1.63;;
51852;SDS011;37894;53.172;6.598;2023-04-03T01:06:56;5.13;;;1.30;;
51852;SDS011;37894;53.172;6.598;2023-04-03T01:09:26;4.60;;;1.30;;
51852;SDS011;37894;53.172;6.598;2023-04-03T01:11:53;5.28;;;1.40;;
51852;SDS011;37894;53.172;6.598;2023-04-03T01:14:18;4.45;;;1.45;;
51852;SDS011;37894;53.172;6.598;2023-04-03T01:16:53;5.53;;;1.38;;
51852;SDS011;37894;53.172;6.598;2023-04-03T01:19:19;2.80;;;1.20;;
51852;SDS011;37894;53.172;6.598;2023-04-03T01:24:36;3.67;;;1.60;;
51852;SDS011;37894;53.172;6.598;2023-04-03T01:27:04;6.55;;;1.58;;
51852;SDS011;37894;53.172;6.598;2023-04-03T01:29:32;2.42;;;1.33;;
51852;SDS011;37894;53.172;6.598;2023-04-03T01:31:59;4.25;;;1.13;;
51852;SDS011;37894;53.172;6.598;2023-04-03T01:34:26;3.60;;;1.20;;
51852;SDS011;37894;53.172;6.598;2023-04-03T01:36:53;4.82;;;1.70;;
51852;SDS011;37894;53.172;6.598;2023-04-03T01:39:19;4.15;;;1.55;;
51852;SDS011;37894;53.172;6.598;2023-04-03T01:41:46;3.33;;;1.58;;
51852;SDS011;37894;53.172;6.598;2023-04-03T01:44:12;6.97;;;1.70;;
51852;SDS011;37894;53.172;6.598;2023-04-03T01:46:37;8.55;;;1.88;;
51852;SDS011;37894;53.172;6.598;2023-04-03T01:49:04;3.88;;;1.40;;
51852;SDS011;37894;53.172;6.598;2023-04-03T01:51:30;3.22;;;1.50;;
51852;SDS011;37894;53.172;6.598;2023-04-03T01:53:56;6.20;;;1.75;;
51852;SDS011;37894;53.172;6.598;2023-04-03T01:56:21;6.32;;;1.58;;
51852;SDS011;37894;53.172;6.598;2023-04-03T01:58:48;2.88;;;1.30;;
51852;SDS011;37894;53.172;6.598;2023-04-03T02:01:13;3.63;;;1.38;;
51852;SDS011;37894;53.172;6.598;2023-04-03T02:03:40;6.93;;;1.75;;
51852;SDS011;37894;53.172;6.598;2023-04-03T02:06:06;6.18;;;1.85;;
51852;SDS011;37894;53.172;6.598;2023-04-03T02:08:32;5.75;;;1.50;;
51852;SDS011;37894;53.172;6.598;2023-04-03T02:10:58;5.75;;;1.58;;
51852;SDS011;37894;53.172;6.598;2023-04-03T02:13:24;3.78;;;1.52;;
51852;SDS011;37894;53.172;6.598;2023-04-03T02:15:50;3.90;;;1.60;;
51852;SDS011;37894;53.172;6.598;2023-04-03T02:18:16;5.30;;;2.13;;
51852;SDS011;37894;53.172;6.598;2023-04-03T02:20:42;4.85;;;1.60;;
51852;SDS011;37894;53.172;6.598;2023-04-03T02:23:08;8.02;;;1.70;;
51852;SDS011;37894;53.172;6.598;2023-04-03T02:25:34;4.90;;;1.67;;
51852;SDS011;37894;53.172;6.598;2023-04-03T02:28:00;5.22;;;1.80;;
51852;SDS011;37894;53.172;6.598;2023-04-03T02:30:26;7.43;;;2.08;;
51852;SDS011;37894;53.172;6.598;2023-04-03T02:32:52;6.53;;;2.03;;
51852;SDS011;37894;53.172;6.598;2023-04-03T02:35:18;4.95;;;1.60;;
51852;SDS011;37894;53.172;6.598;2023-04-03T02:37:44;4.60;;;1.70;;
51852;SDS011;37894;53.172;6.598;2023-04-03T02:40:10;4.80;;;1.73;;
51852;SDS011;37894;53.172;6.598;2023-04-03T02:42:36;6.50;;;1.73;;
51852;SDS011;37894;53.172;6.598;2023-04-03T02:45:02;6.03;;;1.75;;
51852;SDS011;37894;53.172;6.598;2023-04-03T02:47:28;5.70;;;1.75;;
51852;SDS011;37894;53.172;6.598;2023-04-03T02:49:54;4.45;;;2.00;;
51852;SDS011;37894;53.172;6.598;2023-04-03T02:52:20;3.33;;;1.33;;
51852;SDS011;37894;53.172;6.598;2023-04-03T02:54:46;5.00;;;1.73;;
51852;SDS011;37894;53.172;6.598;2023-04-03T02:57:11;5.55;;;1.92;;
51852;SDS011;37894;53.172;6.598;2023-04-03T02:59:37;5.72;;;1.95;;
51852;SDS011;37894;53.172;6.598;2023-04-03T03:02:07;5.20;;;2.05;;
51852;SDS011;37894;53.172;6.598;2023-04-03T03:04:33;5.82;;;1.80;;
51852;SDS011;37894;53.172;6.598;2023-04-03T03:06:59;3.33;;;1.63;;
51852;SDS011;37894;53.172;6.598;2023-04-03T03:09:25;4.53;;;1.60;;
51852;SDS011;37894;53.172;6.598;2023-04-03T03:11:51;3.00;;;1.70;;
51852;SDS011;37894;53.172;6.598;2023-04-03T03:14:17;6.43;;;1.73;;
51852;SDS011;37894;53.172;6.598;2023-04-03T03:16:43;8.88;;;1.98;;
51852;SDS011;37894;53.172;6.598;2023-04-03T03:19:09;4.18;;;1.95;;
51852;SDS011;37894;53.172;6.598;2023-04-03T03:21:35;6.85;;;1.52;;
51852;SDS011;37894;53.172;6.598;2023-04-03T03:24:01;6.82;;;1.73;;
51852;SDS011;37894;53.172;6.598;2023-04-03T03:26:27;7.25;;;3.38;;
51852;SDS011;37894;53.172;6.598;2023-04-03T03:28:53;9.98;;;3.45;;
51852;SDS011;37894;53.172;6.598;2023-04-03T03:31:19;8.63;;;3.92;;
51852;SDS011;37894;53.172;6.598;2023-04-03T03:33:45;7.63;;;3.17;;
51852;SDS011;37894;53.172;6.598;2023-04-03T03:36:11;15.55;;;5.70;;
51852;SDS011;37894;53.172;6.598;2023-04-03T03:38:37;8.43;;;4.35;;
51852;SDS011;37894;53.172;6.598;2023-04-03T03:41:03;11.05;;;5.65;;
51852;SDS011;37894;53.172;6.598;2023-04-03T03:43:29;11.07;;;5.18;;
51852;SDS011;37894;53.172;6.598;2023-04-03T03:45:55;9.45;;;4.28;;
51852;SDS011;37894;53.172;6.598;2023-04-03T03:48:21;7.70;;;3.20;;
51852;SDS011;37894;53.172;6.598;2023-04-03T03:50:47;6.82;;;2.78;;
51852;SDS011;37894;53.172;6.598;2023-04-03T03:53:13;5.55;;;2.33;;
51852;SDS011;37894;53.172;6.598;2023-04-03T03:55:39;5.85;;;1.90;;
51852;SDS011;37894;53.172;6.598;2023-04-03T03:58:05;6.10;;;1.98;;
51852;SDS011;37894;53.172;6.598;2023-04-03T04:00:31;7.57;;;2.30;;
51852;SDS011;37894;53.172;6.598;2023-04-03T04:02:57;9.75;;;2.17;;
51852;SDS011;37894;53.172;6.598;2023-04-03T04:05:23;7.50;;;3.47;;
51852;SDS011;37894;53.172;6.598;2023-04-03T04:07:49;4.45;;;2.10;;
51852;SDS011;37894;53.172;6.598;2023-04-03T04:10:16;5.63;;;2.22;;
51852;SDS011;37894;53.172;6.598;2023-04-03T04:12:42;6.35;;;2.03;;
51852;SDS011;37894;53.172;6.598;2023-04-03T04:15:08;5.30;;;2.15;;
51852;SDS011;37894;53.172;6.598;2023-04-03T04:17:34;6.20;;;1.98;;
51852;SDS011;37894;53.172;6.598;2023-04-03T04:20:01;5.07;;;2.33;;
51852;SDS011;37894;53.172;6.598;2023-04-03T04:22:27;6.75;;;2.40;;
51852;SDS011;37894;53.172;6.598;2023-04-03T04:24:53;5.93;;;2.65;;
51852;SDS011;37894;53.172;6.598;2023-04-03T04:27:19;6.97;;;2.75;;
51852;SDS011;37894;53.172;6.598;2023-04-03T04:29:45;7.35;;;2.53;;
51852;SDS011;37894;53.172;6.598;2023-04-03T04:32:11;8.65;;;2.95;;
51852;SDS011;37894;53.172;6.598;2023-04-03T04:34:37;7.63;;;2.70;;
51852;SDS011;37894;53.172;6.598;2023-04-03T04:37:03;9.90;;;2.67;;
51852;SDS011;37894;53.172;6.598;2023-04-03T04:39:28;6.78;;;2.80;;
51852;SDS011;37894;53.172;6.598;2023-04-03T04:41:55;10.32;;;2.72;;
51852;SDS011;37894;53.172;6.598;2023-04-03T04:44:21;10.45;;;3.15;;
51852;SDS011;37894;53.172;6.598;2023-04-03T04:46:47;6.18;;;2.47;;
51852;SDS011;37894;53.172;6.598;2023-04-03T04:49:13;11.95;;;2.90;;
51852;SDS011;37894;53.172;6.598;2023-04-03T04:51:38;4.63;;;2.40;;
51852;SDS011;37894;53.172;6.598;2023-04-03T04:54:05;7.00;;;2.60;;
51852;SDS011;37894;53.172;6.598;2023-04-03T04:56:30;10.30;;;2.85;;
51852;SDS011;37894;53.172;6.598;2023-04-03T04:58:56;9.80;;;2.78;;
51852;SDS011;37894;53.172;6.598;2023-04-03T05:01:22;8.85;;;2.60;;
51852;SDS011;37894;53.172;6.598;2023-04-03T05:03:48;7.40;;;2.67;;
51852;SDS011;37894;53.172;6.598;2023-04-03T05:06:13;7.20;;;2.80;;
51852;SDS011;37894;53.172;6.598;2023-04-03T05:08:39;6.82;;;2.65;;
51852;SDS011;37894;53.172;6.598;2023-04-03T05:11:06;10.25;;;3.08;;
51852;SDS011;37894;53.172;6.598;2023-04-03T05:13:31;6.88;;;2.92;;
51852;SDS011;37894;53.172;6.598;2023-04-03T05:15:57;11.63;;;3.38;;
51852;SDS011;37894;53.172;6.598;2023-04-03T05:18:23;6.35;;;2.75;;
51852;SDS011;37894;53.172;6.598;2023-04-03T05:20:51;8.43;;;3.10;;
51852;SDS011;37894;53.172;6.598;2023-04-03T05:23:17;7.13;;;2.90;;
51852;SDS011;37894;53.172;6.598;2023-04-03T05:25:43;8.15;;;3.20;;
51852;SDS011;37894;53.172;6.598;2023-04-03T05:28:10;8.73;;;2.90;;
51852;SDS011;37894;53.172;6.598;2023-04-03T05:30:36;9.52;;;3.15;;
51852;SDS011;37894;53.172;6.598;2023-04-03T05:33:02;8.80;;;3.47;;
51852;SDS011;37894;53.172;6.598;2023-04-03T05:35:28;9.60;;;3.20;;
51852;SDS011;37894;53.172;6.598;2023-04-03T05:37:54;10.32;;;3.10;;
51852;SDS011;37894;53.172;6.598;2023-04-03T05:40:20;7.72;;;2.78;;
51852;SDS011;37894;53.172;6.598;2023-04-03T05:42:46;8.75;;;3.08;;
51852;SDS011;37894;53.172;6.598;2023-04-03T05:45:12;10.95;;;3.28;;
51852;SDS011;37894;53.172;6.598;2023-04-03T05:47:38;7.75;;;2.97;;
51852;SDS011;37894;53.172;6.598;2023-04-03T05:50:03;10.77;;;3.55;;
51852;SDS011;37894;53.172;6.598;2023-04-03T05:52:31;8.85;;;2.92;;
51852;SDS011;37894;53.172;6.598;2023-04-03T05:55:00;9.68;;;3.03;;
51852;SDS011;37894;53.172;6.598;2023-04-03T05:57:26;8.82;;;2.78;;
51852;SDS011;37894;53.172;6.598;2023-04-03T05:59:52;6.72;;;2.60;;
51852;SDS011;37894;53.172;6.598;2023-04-03T06:02:19;8.18;;;3.30;;
51852;SDS011;37894;53.172;6.598;2023-04-03T06:04:46;9.70;;;3.30;;
51852;SDS011;37894;53.172;6.598;2023-04-03T06:07:22;13.43;;;3.42;;
51852;SDS011;37894;53.172;6.598;2023-04-03T06:09:52;8.45;;;2.50;;
51852;SDS011;37894;53.172;6.598;2023-04-03T06:12:18;8.27;;;3.65;;
51852;SDS011;37894;53.172;6.598;2023-04-03T06:14:44;9.68;;;3.20;;
51852;SDS011;37894;53.172;6.598;2023-04-03T06:17:11;16.20;;;5.13;;
51852;SDS011;37894;53.172;6.598;2023-04-03T06:19:38;6.55;;;2.83;;
51852;SDS011;37894;53.172;6.598;2023-04-03T06:22:04;10.52;;;3.47;;
51852;SDS011;37894;53.172;6.598;2023-04-03T06:24:30;9.13;;;3.00;;
51852;SDS011;37894;53.172;6.598;2023-04-03T06:26:57;7.07;;;2.53;;
51852;SDS011;37894;53.172;6.598;2023-04-03T06:29:23;6.07;;;2.60;;
51852;SDS011;37894;53.172;6.598;2023-04-03T06:31:49;9.98;;;2.95;;
51852;SDS011;37894;53.172;6.598;2023-04-03T06:34:16;7.43;;;2.83;;
51852;SDS011;37894;53.172;6.598;2023-04-03T06:36:43;6.65;;;3.15;;
51852;SDS011;37894;53.172;6.598;2023-04-03T06:39:17;9.15;;;2.95;;
51852;SDS011;37894;53.172;6.598;2023-04-03T06:41:47;12.10;;;2.90;;
51852;SDS011;37894;53.172;6.598;2023-04-03T06:44:13;6.38;;;2.80;;
51852;SDS011;37894;53.172;6.598;2023-04-03T06:46:41;6.72;;;3.35;;
51852;SDS011;37894;53.172;6.598;2023-04-03T06:49:08;9.65;;;2.60;;
51852;SDS011;37894;53.172;6.598;2023-04-03T06:51:34;6.97;;;3.08;;
51852;SDS011;37894;53.172;6.598;2023-04-03T06:54:00;8.00;;;3.33;;
51852;SDS011;37894;53.172;6.598;2023-04-03T06:56:27;6.25;;;2.65;;
51852;SDS011;37894;53.172;6.598;2023-04-03T06:58:53;10.77;;;2.78;;
51852;SDS011;37894;53.172;6.598;2023-04-03T07:01:22;9.25;;;3.47;;
51852;SDS011;37894;53.172;6.598;2023-04-03T07:03:48;9.85;;;3.28;;
51852;SDS011;37894;53.172;6.598;2023-04-03T07:06:15;7.22;;;3.15;;
51852;SDS011;37894;53.172;6.598;2023-04-03T07:08:41;14.98;;;3.35;;
51852;SDS011;37894;53.172;6.598;2023-04-03T07:11:08;8.02;;;2.78;;
51852;SDS011;37894;53.172;6.598;2023-04-03T07:13:35;9.65;;;3.25;;
51852;SDS011;37894;53.172;6.598;2023-04-03T07:16:02;7.70;;;2.70;;
51852;SDS011;37894;53.172;6.598;2023-04-03T07:18:30;11.75;;;3.30;;
51852;SDS011;37894;53.172;6.598;2023-04-03T07:20:56;8.93;;;3.38;;
51852;SDS011;37894;53.172;6.598;2023-04-03T07:23:22;8.27;;;2.72;;
51852;SDS011;37894;53.172;6.598;2023-04-03T07:25:49;7.97;;;2.80;;
51852;SDS011;37894;53.172;6.598;2023-04-03T07:28:16;7.13;;;2.80;;
51852;SDS011;37894;53.172;6.598;2023-04-03T07:30:51;5.80;;;2.70;;
51852;SDS011;37894;53.172;6.598;2023-04-03T07:33:18;10.15;;;3.22;;
51852;SDS011;37894;53.172;6.598;2023-04-03T07:35:45;8.43;;;2.45;;
51852;SDS011;37894;53.172;6.598;2023-04-03T07:38:12;11.07;;;2.78;;
51852;SDS011;37894;53.172;6.598;2023-04-03T07:40:38;3.78;;;1.75;;
51852;SDS011;37894;53.172;6.598;2023-04-03T07:43:05;6.50;;;2.28;;
51852;SDS011;37894;53.172;6.598;2023-04-03T07:45:31;5.63;;;2.50;;
51852;SDS011;37894;53.172;6.598;2023-04-03T07:47:59;7.32;;;2.40;;
51852;SDS011;37894;53.172;6.598;2023-04-03T07:50:25;7.28;;;2.22;;
51852;SDS011;37894;53.172;6.598;2023-04-03T07:52:52;9.90;;;2.50;;
51852;SDS011;37894;53.172;6.598;2023-04-03T07:55:19;5.32;;;1.90;;
51852;SDS011;37894;53.172;6.598;2023-04-03T07:57:45;8.73;;;2.00;;
51852;SDS011;37894;53.172;6.598;2023-04-03T08:00:12;8.98;;;2.10;;
51852;SDS011;37894;53.172;6.598;2023-04-03T08:02:38;8.60;;;2.72;;
51852;SDS011;37894;53.172;6.598;2023-04-03T08:05:04;8.27;;;2.00;;
51852;SDS011;37894;53.172;6.598;2023-04-03T08:07:30;6.63;;;2.42;;
51852;SDS011;37894;53.172;6.598;2023-04-03T08:09:56;5.30;;;1.92;;
51852;SDS011;37894;53.172;6.598;2023-04-03T08:12:22;7.68;;;2.35;;
51852;SDS011;37894;53.172;6.598;2023-04-03T08:14:47;9.15;;;2.05;;
51852;SDS011;37894;53.172;6.598;2023-04-03T08:17:13;5.18;;;1.95;;
51852;SDS011;37894;53.172;6.598;2023-04-03T08:19:40;4.82;;;1.67;;
51852;SDS011;37894;53.172;6.598;2023-04-03T08:22:06;4.13;;;1.48;;
51852;SDS011;37894;53.172;6.598;2023-04-03T08:24:32;4.90;;;1.85;;
51852;SDS011;37894;53.172;6.598;2023-04-03T08:26:59;7.15;;;2.05;;
51852;SDS011;37894;53.172;6.598;2023-04-03T08:29:25;4.03;;;1.60;;
51852;SDS011;37894;53.172;6.598;2023-04-03T08:31:51;5.90;;;1.92;;
51852;SDS011;37894;53.172;6.598;2023-04-03T08:34:16;7.03;;;1.60;;
51852;SDS011;37894;53.172;6.598;2023-04-03T08:36:43;7.32;;;1.90;;
51852;SDS011;37894;53.172;6.598;2023-04-03T08:39:09;3.80;;;1.73;;
51852;SDS011;37894;53.172;6.598;2023-04-03T08:41:39;6.22;;;2.05;;
51852;SDS011;37894;53.172;6.598;2023-04-03T08:47:18;4.72;;;1.80;;
51852;SDS011;37894;53.172;6.598;2023-04-03T08:49:55;5.80;;;2.15;;
51852;SDS011;37894;53.172;6.598;2023-04-03T08:52:38;5.22;;;2.13;;
51852;SDS011;37894;53.172;6.598;2023-04-03T08:55:29;7.45;;;2.17;;
51852;SDS011;37894;53.172;6.598;2023-04-03T08:58:09;5.05;;;1.92;;
51852;SDS011;37894;53.172;6.598;2023-04-03T09:00:44;5.03;;;2.22;;
51852;SDS011;37894;53.172;6.598;2023-04-03T09:03:33;5.95;;;1.83;;
51852;SDS011;37894;53.172;6.598;2023-04-03T09:11:24;6.57;;;1.67;;
51852;SDS011;37894;53.172;6.598;2023-04-03T09:19:52;5.95;;;2.00;;
51852;SDS011;37894;53.172;6.598;2023-04-03T09:22:26;6.88;;;1.70;;
51852;SDS011;37894;53.172;6.598;2023-04-03T09:25:10;5.32;;;1.30;;
51852;SDS011;37894;53.172;6.598;2023-04-03T09:27:43;5.32;;;1.88;;
51852;SDS011;37894;53.172;6.598;2023-04-03T09:30:13;4.95;;;1.77;;
51852;SDS011;37894;53.172;6.598;2023-04-03T09:32:41;5.13;;;1.70;;
51852;SDS011;37894;53.172;6.598;2023-04-03T09:37:46;6.30;;;2.40;;
51852;SDS011;37894;53.172;6.598;2023-04-03T09:42:52;3.15;;;1.27;;
51852;SDS011;37894;53.172;6.598;2023-04-03T09:45:23;4.90;;;1.48;;
51852;SDS011;37894;53.172;6.598;2023-04-03T09:47:50;4.18;;;1.30;;
51852;SDS011;37894;53.172;6.598;2023-04-03T09:50:34;2.63;;;1.23;;
51852;SDS011;37894;53.172;6.598;2023-04-03T09:53:12;3.72;;;1.40;;
51852;SDS011;37894;53.172;6.598;2023-04-03T09:55:56;3.67;;;1.30;;
51852;SDS011;37894;53.172;6.598;2023-04-03T09:58:26;3.42;;;1.10;;
51852;SDS011;37894;53.172;6.598;2023-04-03T10:00:59;2.53;;;1.17;;
51852;SDS011;37894;53.172;6.598;2023-04-03T10:03:29;4.88;;;1.38;;
51852;SDS011;37894;53.172;6.598;2023-04-03T10:05:57;4.38;;;1.30;;
51852;SDS011;37894;53.172;6.598;2023-04-03T10:11:14;2.80;;;1.27;;
51852;SDS011;37894;53.172;6.598;2023-04-03T10:14:01;4.22;;;1.48;;
51852;SDS011;37894;53.172;6.598;2023-04-03T10:16:35;3.80;;;1.20;;
51852;SDS011;37894;53.172;6.598;2023-04-03T10:19:29;3.67;;;1.40;;
51852;SDS011;37894;53.172;6.598;2023-04-03T10:22:42;5.22;;;1.50;;
51852;SDS011;37894;53.172;6.598;2023-04-03T10:25:12;2.92;;;1.25;;
51852;SDS011;37894;53.172;6.598;2023-04-03T10:33:20;4.63;;;1.00;;
51852;SDS011;37894;53.172;6.598;2023-04-03T10:44:23;2.85;;;0.98;;
51852;SDS011;37894;53.172;6.598;2023-04-03T10:47:18;2.60;;;1.25;;
51852;SDS011;37894;53.172;6.598;2023-04-03T10:49:49;1.83;;;0.90;;
51852;SDS011;37894;53.172;6.598;2023-04-03T10:57:35;3.00;;;1.05;;
51852;SDS011;37894;53.172;6.598;2023-04-03T11:00:07;2.10;;;0.93;;
51852;SDS011;37894;53.172;6.598;2023-04-03T11:02:49;5.80;;;1.50;;
51852;SDS011;37894;53.172;6.598;2023-04-03T11:11:19;2.10;;;1.00;;
51852;SDS011;37894;53.172;6.598;2023-04-03T11:16:36;3.88;;;1.00;;
51852;SDS011;37894;53.172;6.598;2023-04-03T11:19:18;2.10;;;0.93;;
51852;SDS011;37894;53.172;6.598;2023-04-03T11:22:03;2.25;;;1.00;;
51852;SDS011;37894;53.172;6.598;2023-04-03T11:24:37;4.90;;;1.05;;
51852;SDS011;37894;53.172;6.598;2023-04-03T11:27:08;4.10;;;1.30;;
51852;SDS011;37894;53.172;6.598;2023-04-03T11:29:43;3.65;;;1.50;;
51852;SDS011;37894;53.172;6.598;2023-04-03T11:34:52;3.25;;;0.98;;
51852;SDS011;37894;53.172;6.598;2023-04-03T11:37:43;2.10;;;0.80;;
51852;SDS011;37894;53.172;6.598;2023-04-03T11:42:47;4.88;;;1.10;;
51852;SDS011;37894;53.172;6.598;2023-04-03T11:58:15;8.43;;;1.00;;
51852;SDS011;37894;53.172;6.598;2023-04-03T12:14:01;5.30;;;1.00;;
51852;SDS011;37894;53.172;6.598;2023-04-03T12:29:25;3.10;;;1.00;;
51852;SDS011;37894;53.172;6.598;2023-04-03T12:35:05;2.17;;;1.05;;
51852;SDS011;37894;53.172;6.598;2023-04-03T12:46:49;2.67;;;0.88;;
51852;SDS011;37894;53.172;6.598;2023-04-03T12:49:24;2.70;;;1.00;;
51852;SDS011;37894;53.172;6.598;2023-04-03T12:52:22;2.30;;;0.90;;
51852;SDS011;37894;53.172;6.598;2023-04-03T12:55:01;3.08;;;1.10;;
51852;SDS011;37894;53.172;6.598;2023-04-03T12:57:29;2.92;;;1.05;;
51852;SDS011;37894;53.172;6.598;2023-04-03T12:59:56;1.85;;;0.80;;
51852;SDS011;37894;53.172;6.598;2023-04-03T13:04:56;2.22;;;0.95;;
51852;SDS011;37894;53.172;6.598;2023-04-03T13:07:31;2.13;;;1.05;;
51852;SDS011;37894;53.172;6.598;2023-04-03T13:10:18;4.35;;;0.90;;
51852;SDS011;37894;53.172;6.598;2023-04-03T13:12:51;2.10;;;1.00;;
51852;SDS011;37894;53.172;6.598;2023-04-03T13:15:40;2.58;;;1.00;;
51852;SDS011;37894;53.172;6.598;2023-04-03T13:20:52;3.83;;;0.93;;
51852;SDS011;37894;53.172;6.598;2023-04-03T13:23:22;2.13;;;0.93;;
51852;SDS011;37894;53.172;6.598;2023-04-03T13:25:48;4.05;;;1.25;;
51852;SDS011;37894;53.172;6.598;2023-04-03T13:28:18;3.20;;;1.55;;
51852;SDS011;37894;53.172;6.598;2023-04-03T13:31:04;2.72;;;1.10;;
51852;SDS011;37894;53.172;6.598;2023-04-03T13:33:35;3.03;;;1.20;;
51852;SDS011;37894;53.172;6.598;2023-04-03T13:36:15;2.65;;;0.90;;
51852;SDS011;37894;53.172;6.598;2023-04-03T13:38:44;3.03;;;1.17;;
51852;SDS011;37894;53.172;6.598;2023-04-03T13:41:24;2.80;;;0.93;;
51852;SDS011;37894;53.172;6.598;2023-04-03T13:43:50;2.10;;;0.95;;
51852;SDS011;37894;53.172;6.598;2023-04-03T13:48:46;2.72;;;1.00;;
51852;SDS011;37894;53.172;6.598;2023-04-03T13:53:43;2.80;;;1.20;;
51852;SDS011;37894;53.172;6.598;2023-04-03T13:56:23;3.92;;;1.10;;
51852;SDS011;37894;53.172;6.598;2023-04-03T13:59:05;2.75;;;1.00;;
51852;SDS011;37894;53.172;6.598;2023-04-03T14:01:47;2.47;;;0.93;;
51852;SDS011;37894;53.172;6.598;2023-04-03T14:06:52;9.65;;;1.65;;
51852;SDS011;37894;53.172;6.598;2023-04-03T14:09:19;2.78;;;1.00;;
51852;SDS011;37894;53.172;6.598;2023-04-03T14:11:46;2.90;;;1.10;;
51852;SDS011;37894;53.172;6.598;2023-04-03T14:14:14;3.55;;;1.45;;
51852;SDS011;37894;53.172;6.598;2023-04-03T14:16:47;2.88;;;1.40;;
51852;SDS011;37894;53.172;6.598;2023-04-03T14:19:18;2.67;;;1.10;;
51852;SDS011;37894;53.172;6.598;2023-04-03T14:21:48;6.18;;;2.55;;
51852;SDS011;37894;53.172;6.598;2023-04-03T14:24:16;3.10;;;1.35;;
51852;SDS011;37894;53.172;6.598;2023-04-03T14:26:42;4.70;;;1.80;;
51852;SDS011;37894;53.172;6.598;2023-04-03T14:29:09;7.15;;;2.28;;
51852;SDS011;37894;53.172;6.598;2023-04-03T14:31:36;2.72;;;1.20;;
51852;SDS011;37894;53.172;6.598;2023-04-03T14:34:02;4.60;;;1.17;;
51852;SDS011;37894;53.172;6.598;2023-04-03T14:36:28;3.00;;;1.40;;
51852;SDS011;37894;53.172;6.598;2023-04-03T14:38:55;3.58;;;1.58;;
51852;SDS011;37894;53.172;6.598;2023-04-03T14:41:23;3.03;;;1.10;;
51852;SDS011;37894;53.172;6.598;2023-04-03T14:43:50;2.13;;;1.20;;
51852;SDS011;37894;53.172;6.598;2023-04-03T14:46:26;3.00;;;0.98;;
51852;SDS011;37894;53.172;6.598;2023-04-03T14:49:04;2.75;;;1.10;;
51852;SDS011;37894;53.172;6.598;2023-04-03T14:51:37;4.55;;;1.20;;
51852;SDS011;37894;53.172;6.598;2023-04-03T14:54:04;3.08;;;1.30;;
51852;SDS011;37894;53.172;6.598;2023-04-03T14:59:01;2.35;;;1.10;;
51852;SDS011;37894;53.172;6.598;2023-04-03T15:01:27;3.35;;;1.30;;
51852;SDS011;37894;53.172;6.598;2023-04-03T15:04:01;3.45;;;1.10;;
51852;SDS011;37894;53.172;6.598;2023-04-03T15:06:39;2.92;;;1.00;;
51852;SDS011;37894;53.172;6.598;2023-04-03T15:09:08;3.25;;;1.25;;
51852;SDS011;37894;53.172;6.598;2023-04-03T15:11:50;2.72;;;1.27;;
51852;SDS011;37894;53.172;6.598;2023-04-03T15:14:16;3.40;;;1.52;;
51852;SDS011;37894;53.172;6.598;2023-04-03T15:16:42;2.83;;;1.35;;
51852;SDS011;37894;53.172;6.598;2023-04-03T15:19:09;3.08;;;1.00;;
51852;SDS011;37894;53.172;6.598;2023-04-03T15:21:35;2.88;;;1.13;;
51852;SDS011;37894;53.172;6.598;2023-04-03T15:24:01;3.92;;;1.33;;
51852;SDS011;37894;53.172;6.598;2023-04-03T15:26:27;3.28;;;1.58;;
51852;SDS011;37894;53.172;6.598;2023-04-03T15:28:54;4.80;;;1.55;;
51852;SDS011;37894;53.172;6.598;2023-04-03T15:31:20;2.63;;;1.20;;
51852;SDS011;37894;53.172;6.598;2023-04-03T15:33:46;5.20;;;1.25;;
51852;SDS011;37894;53.172;6.598;2023-04-03T15:36:12;2.97;;;1.15;;
51852;SDS011;37894;53.172;6.598;2023-04-03T15:38:37;4.45;;;1.33;;
51852;SDS011;37894;53.172;6.598;2023-04-03T15:41:04;2.72;;;1.30;;
51852;SDS011;37894;53.172;6.598;2023-04-03T15:43:31;5.32;;;1.40;;
51852;SDS011;37894;53.172;6.598;2023-04-03T15:45:59;3.70;;;1.48;;
51852;SDS011;37894;53.172;6.598;2023-04-03T15:48:25;3.47;;;1.40;;
51852;SDS011;37894;53.172;6.598;2023-04-03T15:50:52;2.50;;;1.42;;
51852;SDS011;37894;53.172;6.598;2023-04-03T15:53:18;2.70;;;1.17;;
51852;SDS011;37894;53.172;6.598;2023-04-03T15:55:44;2.47;;;1.13;;
51852;SDS011;37894;53.172;6.598;2023-04-03T15:58:10;5.00;;;1.10;;
51852;SDS011;37894;53.172;6.598;2023-04-03T16:00:36;2.38;;;1.00;;
51852;SDS011;37894;53.172;6.598;2023-04-03T16:03:08;2.83;;;1.02;;
51852;SDS011;37894;53.172;6.598;2023-04-03T16:05:36;3.78;;;0.93;;
51852;SDS011;37894;53.172;6.598;2023-04-03T16:08:03;3.42;;;1.05;;
51852;SDS011;37894;53.172;6.598;2023-04-03T16:10:30;5.30;;;1.10;;
51852;SDS011;37894;53.172;6.598;2023-04-03T16:12:56;4.93;;;1.35;;
51852;SDS011;37894;53.172;6.598;2023-04-03T16:15:21;2.70;;;1.20;;
51852;SDS011;37894;53.172;6.598;2023-04-03T16:17:49;3.67;;;1.23;;
51852;SDS011;37894;53.172;6.598;2023-04-03T16:20:15;2.95;;;1.00;;
51852;SDS011;37894;53.172;6.598;2023-04-03T16:22:43;5.80;;;1.38;;
51852;SDS011;37894;53.172;6.598;2023-04-03T16:25:09;3.45;;;1.00;;
51852;SDS011;37894;53.172;6.598;2023-04-03T16:27:35;5.20;;;1.35;;
51852;SDS011;37894;53.172;6.598;2023-04-03T16:30:01;2.40;;;0.93;;
51852;SDS011;37894;53.172;6.598;2023-04-03T16:32:29;3.13;;;1.15;;
51852;SDS011;37894;53.172;6.598;2023-04-03T16:34:56;2.65;;;1.23;;
51852;SDS011;37894;53.172;6.598;2023-04-03T16:37:23;3.17;;;1.00;;
51852;SDS011;37894;53.172;6.598;2023-04-03T16:39:48;2.08;;;0.98;;
51852;SDS011;37894;53.172;6.598;2023-04-03T16:42:14;3.42;;;1.10;;
51852;SDS011;37894;53.172;6.598;2023-04-03T16:44:40;7.43;;;1.25;;
51852;SDS011;37894;53.172;6.598;2023-04-03T16:47:06;2.45;;;1.20;;
51852;SDS011;37894;53.172;6.598;2023-04-03T16:49:32;2.83;;;1.05;;
51852;SDS011;37894;53.172;6.598;2023-04-03T16:52:00;4.80;;;1.30;;
51852;SDS011;37894;53.172;6.598;2023-04-03T16:54:27;3.92;;;1.10;;
51852;SDS011;37894;53.172;6.598;2023-04-03T16:56:53;4.82;;;1.52;;
51852;SDS011;37894;53.172;6.598;2023-04-03T16:59:19;3.53;;;1.02;;
51852;SDS011;37894;53.172;6.598;2023-04-03T17:01:45;3.60;;;1.40;;
51852;SDS011;37894;53.172;6.598;2023-04-03T17:04:11;3.85;;;1.40;;